Language selection

My Weather Profile Weather Topics  | 

Lake of the Woods: Past 24 Hour Conditions

 

Marathon Airport

06:00 AM EST 30 January 2023
Disclaimer

This table is a summary of hourly weather conditions for the past 24 hours.
Please note that these observations might not always be representative of weather conditions over their associated marine area.

Date / Time
(EST)
Wind(knots) Conditions Visibility(km) Pressure(kPa) Air tempC) Relative humidity(%) Dew pointC) Wind Chill
30 January 2023
6:00 SE 2 N/A N/A 102.6 -29 76 -32 -33
5:00 calm N/A N/A 102.5 -27 71 -31 *
4:00 NW 3 N/A N/A 102.5 -23 69 -27 -29
3:00 NNW 4 N/A N/A 102.5 -23 68 -28 -29
2:00 NW 4 N/A N/A 102.5 -25 71 -28 -32
1:00 NW 6 N/A N/A 102.6 -22 69 -26 -30
0:00 NW 5 N/A N/A 102.6 -22 68 -26 -30
29 January 2023
23:00 NNW 9 N/A N/A 102.6 -21 69 -26 -31
22:00 N 8 N/A N/A 102.6 -24 80 -27 -34
21:00 calm N/A N/A 102.7 -28 80 -30 *
20:00 NW 5 N/A N/A 102.6 -22 75 -25 -29
19:00 NW 4 N/A N/A 102.5 -21 75 -24 -28
18:00 NNW 4 N/A N/A 102.4 -22 76 -25 -28
17:00 W 3 Partly Cloudy 24 102.4 -18 64 -23 -22
16:00 W 5 Partly Cloudy 24 102.4 -17 60 -23 -23
15:00 W 8 Partly Cloudy 24 102.4 -17 63 -22 -25
14:00 WNW 6 Partly Cloudy 24 102.5 -18 63 -23 -25
13:00 WSW 3 Mainly Sunny 24 102.5 -18 61 -24 -23
12:00 WNW 6 Partly Cloudy 24 102.7 -19 57 -26 -27
11:00 WNW 5 Partly Cloudy 24 102.7 -21 62 -26 -28
10:00 NNW 3 Mostly Cloudy 24 102.8 -25 78 -27 -29
9:00 ESE 2 Mostly Cloudy 24 102.8 -30 76 -33 -35
8:00 N 1 Partly Cloudy 24 102.8 -31 77 -33 -33
7:00 NNE 2 N/A N/A 102.7 -28 79 -30 -31
6:00 NE 4 N/A N/A 102.7 -24 74 -27 -31

Zoom-in to make a selection

Map of Great Lakes - Lake Superior marine weather areas Mid Superior - 45001 East Superior - 45004 West Superior - 45006 Slate Island - 45136 Lake Of the Woods - 45148 Kenora Airport Royal Island Armstrong Airport Caribou Island Marathon Airport Pukaskwa National Park Thunder Bay Airport Welcome Island Little Flatland Island Sault Ste. Marie Airport Wawa Airport
Legend:
buoy Buoy
land station Land Station

Great Lakes - Lake Superior Area

Another Region

What we are doing

Date modified: